x

Fowey Rock, Fl (fwyf1) Weather Station

2:00am - Tue 28th Mar 2017 All times are EDT. -4 hours from GMT.

  • Wind
    8mph, 9mph gusts
  • Sea Temp 75°f
  • Air Temp 74°f
  • Sea Pressure 1016.9mb
  • Fowey Rock, Fl
  • Fowey Rock, Fl

More Historic Weather Station data

Upgrade to MSW Pro to gain access to the past 30 days of data for over 8000 Wavebouys and Weather Stations around the globe.

Join Pro

Comparision Forecast

View Surf forecast
   
Tue 03/28 2:00am 8 9 mph 1016.9mb 75f 74f
1:00am 9 10 mph 1017.1mb 75f 74f
12:00am 11 13 mph 1017.3mb 76f 74f
Mon 03/27 11:00pm 13 15 mph 1017.5mb 76f 74f
10:00pm 14 16 mph 1017.3mb 76f 74f
9:00pm 16 18 mph 1016.9mb 76f 74f
8:00pm 14 15 mph 1016.7mb 76f 75f
7:00pm 16 17 mph 1016.3mb 76f 75f
6:00pm 14 15 mph 1016.6mb 76f 75f
5:00pm 17 20 mph 1016.6mb 76f 75f
4:00pm 8 9 mph 1017.5mb 76f 75f
3:00pm 10 11 mph 1018.2mb 76f 75f
2:00pm 10 11 mph 1018.7mb 76f 75f
1:00pm 9 11 mph 1019.4mb 76f 75f
12:00pm 9 11 mph 1019.8mb 76f 74f
11:00am 10 11 mph 1019.6mb 76f 75f
10:00am 10 11 mph 1019.4mb 76f 75f
9:00am 8 9 mph 1018.8mb 76f 75f
8:00am 11 13 mph 1017.8mb 76f 74f
7:00am 13
mph
1017.3mb 75f 73f
6:00am 13 14 mph 1017.1mb 75f 73f
5:00am 13 15 mph 1016.9mb 75f 73f
4:00am 14 15 mph 1017mb 75f 73f
3:00am 18 20 mph 1017.3mb 75f 73f
2:00am 18 21 mph 1018.1mb 75f 74f
1:00am 18 20 mph 1018.7mb 76f 74f
12:00am 16 18 mph 1019.5mb 76f 74f
Sun 03/26 11:00pm 18 20 mph 1019.8mb 76f 74f
10:00pm 17 20 mph 1019.9mb 76f 74f
9:00pm 17 20 mph 1019.7mb 76f 74f
8:00pm 20 23 mph 1018.9mb 76f 74f
7:00pm 16 18 mph 1018.6mb 76f 74f
6:00pm 18 21 mph 1018.5mb 76f 74f
5:00pm 16 18 mph 1018.5mb 76f 75f
4:00pm 16 18 mph 1018.6mb 76f 74f
3:00pm 18
mph
1018.8mb 76f 74f
2:00pm 17 18 mph 1019.4mb 76f 74f
1:00pm 15 17 mph 1020.2mb 76f 74f
12:00pm 16 17 mph 1020.6mb 76f 74f
11:00am 20 21 mph 1020.3mb 76f 74f
10:00am 21 22 mph 1020mb 75f 74f
9:00am 21 24 mph 1019.6mb 75f 74f
8:00am 23 25 mph 1018.9mb 75f 74f
7:00am 21 22 mph 1018.9mb 75f 74f
6:00am 20 21 mph 1018.5mb 75f 73f
5:00am 22 25 mph 1018mb 75f 74f
4:00am 22 23 mph 1018.1mb 75f 74f
3:00am 23 26 mph 1018.4mb 75f 74f
2:00am 26 29 mph 1018.8mb 75f 74f
1:00am 25 28 mph 1019.4mb 75f 74f
12:00am 25 26 mph 1020.2mb 75f 73f
Sat 03/25 11:00pm 23 25 mph 1020.3mb 75f 74f
10:00pm 21 22 mph 1020.6mb 75f 74f
9:00pm 24 25 mph 1020mb 75f 74f
8:00pm 18 21 mph 1020mb 75f 74f
7:00pm 17 18 mph 1019.8mb 76f 74f
6:00pm 15 16 mph 1020.1mb 76f 73f
5:00pm 21 23 mph 1020.2mb 76f 74f
4:00pm 18 21 mph 1020.8mb 76f 74f
3:00pm 20 22 mph 1021.2mb 76f 74f
2:00pm 21 23 mph 1021.9mb 76f 74f
1:00pm 25 28 mph 1022.8mb 76f 74f
12:00pm 23 25 mph 1023.3mb 75f 74f
11:00am 25 28 mph 1023.2mb 75f 73f
10:00am 28 29 mph 1022.7mb 75f 73f
9:00am 24 25 mph 1022.6mb 75f 73f
8:00am 22 24 mph 1022.3mb 75f 73f
7:00am 23 25 mph 1021.7mb 75f 73f
6:00am 23 24 mph 1021.3mb 75f 73f
5:00am 21 23 mph 1021.1mb 75f 73f
4:00am 23 25 mph 1021.5mb 75f 73f
3:00am 26 29 mph 1021.9mb 75f 73f
2:00am 26 30 mph 1022.7mb 75f 73f
1:00am 25 29 mph 1023.5mb 75f 73f
12:00am 28 30 mph 1023.8mb 75f 74f
Fri 03/24 11:00pm 30 33 mph 1023.9mb 75f 74f
10:00pm 30 32 mph 1023.6mb 75f 74f
9:00pm 30 32 mph 1023.1mb 75f 73f
8:00pm 30 33 mph 1022.8mb 75f 74f
7:00pm 31 33 mph 1022.5mb 75f 74f
6:00pm 31 33 mph 1022.5mb 76f 74f
5:00pm 30 33 mph 1022.8mb 76f 73f
4:00pm 30 33 mph 1023.2mb 75f 73f
3:00pm 30 33 mph 1023.7mb 75f 73f
2:00pm 31 34 mph 1024.1mb 75f 73f
1:00pm 33 37 mph 1025mb 75f 73f
12:00pm 31 33 mph 1025.5mb 75f 73f
11:00am 32 34 mph 1025.5mb 74f 73f
10:00am 31 34 mph 1025.1mb 74f 73f
9:00am 30 32 mph 1024.9mb 74f 73f
8:00am 30 33 mph 1024.2mb 74f 73f